Time;durP1;ratioP1;P1;durP2;ratioP2;P2;SDS_P1;SDS_P2;PMS_P1;PMS_P2;Temp;Humidity;BMP_temperature;BMP_pressure;BME280_temperature;BME280_humidity;BME280_pressure;Samples;Min_cycle;Max_cycle;Signal;HPM_P1;HPM_P2
2021/05/23 00:00:35;;;;;;;1.85;0.50;;;;;;;;;;5069424;28;20027;-63
2021/05/23 00:03:06;;;;;;;2.45;1.40;;;;;;;;;;5074713;28;20027;-63
2021/05/23 00:05:31;;;;;;;3.88;0.88;;;;;;;;;;5073866;28;20020;-63
2021/05/23 00:08:02;;;;;;;2.60;0.70;;;;;;;;;;5073589;28;20032;-64
2021/05/23 00:10:28;;;;;;;2.88;0.73;;;;;;;;;;5069578;28;20012;-63
2021/05/23 00:12:54;;;;;;;1.38;0.60;;;;;;;;;;5074118;28;20024;-63
2021/05/23 00:15:22;;;;;;;4.65;0.75;;;;;;;;;;5073532;28;20376;-63
2021/05/23 00:17:47;;;;;;;1.98;0.70;;;;;;;;;;5102518;28;20033;-63
2021/05/23 00:20:13;;;;;;;2.15;0.55;;;;;;;;;;5068965;28;20031;-63
2021/05/23 00:22:38;;;;;;;2.88;0.98;;;;;;;;;;5071923;28;21314;-63
2021/05/23 00:25:03;;;;;;;2.90;0.70;;;;;;;;;;5072359;28;20046;-63
2021/05/23 00:27:29;;;;;;;5.60;1.00;;;;;;;;;;5072060;28;20024;-63
2021/05/23 00:29:54;;;;;;;3.83;0.73;;;;;;;;;;5070130;28;20021;-63
2021/05/23 00:32:19;;;;;;;4.15;0.80;;;;;;;;;;5072456;28;20024;-64
2021/05/23 00:34:45;;;;;;;3.28;0.80;;;;;;;;;;5073626;28;20013;-63
2021/05/23 00:37:10;;;;;;;3.05;0.73;;;;;;;;;;5071818;28;20050;-63
2021/05/23 00:39:35;;;;;;;5.07;0.82;;;;;;;;;;5070145;28;20021;-63
2021/05/23 00:42:00;;;;;;;3.17;0.77;;;;;;;;;;5073088;28;20023;-63
2021/05/23 00:44:25;;;;;;;1.25;0.77;;;;;;;;;;5073846;28;20060;-63
2021/05/23 00:46:51;;;;;;;4.53;1.52;;;;;;;;;;5072965;28;20024;-63
2021/05/23 00:49:16;;;;;;;4.38;1.10;;;;;;;;;;5069591;28;20012;-62
2021/05/23 00:51:41;;;;;;;4.60;1.02;;;;;;;;;;5073605;28;20515;-63
2021/05/23 00:54:06;;;;;;;3.92;0.82;;;;;;;;;;5072076;28;20024;-63
2021/05/23 00:56:34;;;;;;;5.60;1.02;;;;;;;;;;5072396;28;20565;-63
2021/05/23 00:58:59;;;;;;;2.45;0.90;;;;;;;;;;5069724;28;20020;-63
2021/05/23 01:01:42;;;;;;;2.83;0.73;;;;;;;;;;5072800;28;20112;-63
2021/05/23 01:04:08;;;;;;;2.90;0.77;;;;;;;;;;5073058;28;20028;-63
2021/05/23 01:06:33;;;;;;;2.47;0.77;;;;;;;;;;5072848;28;20013;-63
2021/05/23 01:08:58;;;;;;;2.47;0.85;;;;;;;;;;5067479;28;20039;-63
2021/05/23 01:11:23;;;;;;;3.72;1.05;;;;;;;;;;5072535;28;20023;-63
2021/05/23 01:13:58;;;;;;;2.55;0.95;;;;;;;;;;5073368;28;20023;-63
2021/05/23 01:16:32;;;;;;;2.40;0.90;;;;;;;;;;5072466;28;20025;-63
2021/05/23 01:19:03;;;;;;;3.00;1.15;;;;;;;;;;5069315;28;20033;-63
2021/05/23 01:21:31;;;;;;;2.65;1.15;;;;;;;;;;5062369;28;20032;-63
2021/05/23 01:24:02;;;;;;;3.00;0.98;;;;;;;;;;5068155;28;20032;-63
2021/05/23 01:26:38;;;;;;;2.72;0.88;;;;;;;;;;5057598;28;20052;-63
2021/05/23 01:29:05;;;;;;;3.50;1.10;;;;;;;;;;5068700;28;20498;-63
2021/05/23 01:31:32;;;;;;;2.92;1.00;;;;;;;;;;5064742;28;20056;-63
2021/05/23 01:33:58;;;;;;;2.33;1.00;;;;;;;;;;5072602;28;20100;-63
2021/05/23 01:36:26;;;;;;;1.83;1.00;;;;;;;;;;5072586;28;20063;-63
2021/05/23 01:38:51;;;;;;;4.30;1.10;;;;;;;;;;5079954;28;20555;-63
2021/05/23 01:41:16;;;;;;;3.70;1.27;;;;;;;;;;5072312;28;20096;-63
2021/05/23 01:43:42;;;;;;;3.80;1.02;;;;;;;;;;5072541;28;20025;-63
2021/05/23 01:46:07;;;;;;;2.72;0.70;;;;;;;;;;5071452;28;20020;-63
2021/05/23 01:48:34;;;;;;;1.35;0.70;;;;;;;;;;5067922;28;20027;-63
2021/05/23 01:50:59;;;;;;;3.13;0.55;;;;;;;;;;5071968;28;20020;-63
2021/05/23 01:53:24;;;;;;;2.17;0.60;;;;;;;;;;5072138;28;20266;-63
2021/05/23 01:55:50;;;;;;;3.20;0.80;;;;;;;;;;5070750;28;20017;-63
2021/05/23 01:58:15;;;;;;;3.30;0.70;;;;;;;;;;5070229;28;20032;-63
2021/05/23 02:00:42;;;;;;;2.08;0.50;;;;;;;;;;5070294;28;20020;-63
2021/05/23 02:03:08;;;;;;;2.20;0.85;;;;;;;;;;5071692;28;20055;-63
2021/05/23 02:05:34;;;;;;;1.85;0.60;;;;;;;;;;5104095;28;20024;-63
2021/05/23 02:08:00;;;;;;;2.63;0.70;;;;;;;;;;5071600;28;20028;-62
2021/05/23 02:10:25;;;;;;;6.57;0.93;;;;;;;;;;5068581;28;20016;-63
2021/05/23 02:12:52;;;;;;;2.25;0.40;;;;;;;;;;5071618;28;20015;-61
2021/05/23 02:15:17;;;;;;;6.10;1.30;;;;;;;;;;5070813;28;20020;-63
2021/05/23 02:17:44;;;;;;;2.53;0.50;;;;;;;;;;5071653;28;20380;-62
2021/05/23 02:20:11;;;;;;;1.60;0.43;;;;;;;;;;5073798;28;20019;-62
2021/05/23 02:22:43;;;;;;;3.85;0.50;;;;;;;;;;5071542;28;20035;-62
2021/05/23 02:25:10;;;;;;;2.10;0.45;;;;;;;;;;5069777;28;20494;-62
2021/05/23 02:27:36;;;;;;;1.63;0.30;;;;;;;;;;5070662;28;20028;-61
2021/05/23 02:30:04;;;;;;;2.63;0.47;;;;;;;;;;5067977;28;20098;-61
2021/05/23 02:32:30;;;;;;;1.33;0.40;;;;;;;;;;5071787;28;20407;-61
2021/05/23 02:34:55;;;;;;;1.83;0.50;;;;;;;;;;5071338;28;20039;-62
2021/05/23 02:37:20;;;;;;;3.45;0.60;;;;;;;;;;5072138;28;20495;-61
2021/05/23 02:39:45;;;;;;;2.08;0.30;;;;;;;;;;5068307;28;20039;-62
2021/05/23 02:42:11;;;;;;;2.97;0.50;;;;;;;;;;5071187;28;20105;-61
2021/05/23 02:44:36;;;;;;;3.33;0.40;;;;;;;;;;5070902;28;20029;-61
2021/05/23 02:47:02;;;;;;;2.13;0.40;;;;;;;;;;5070986;28;20170;-62
2021/05/23 02:49:27;;;;;;;2.55;0.50;;;;;;;;;;5066683;28;20023;-62
2021/05/23 02:51:52;;;;;;;2.33;0.68;;;;;;;;;;5070744;28;20013;-62
2021/05/23 02:54:17;;;;;;;3.55;0.52;;;;;;;;;;5070790;28;20023;-62
2021/05/23 02:56:43;;;;;;;2.22;0.50;;;;;;;;;;5069312;28;20361;-62
2021/05/23 02:59:08;;;;;;;2.75;0.47;;;;;;;;;;5068122;28;20021;-63
2021/05/23 03:01:33;;;;;;;3.58;0.40;;;;;;;;;;5071138;28;20372;-62
2021/05/23 03:03:58;;;;;;;1.85;0.45;;;;;;;;;;5071089;28;20027;-63
2021/05/23 03:06:23;;;;;;;3.15;0.60;;;;;;;;;;5070437;28;20044;-63
2021/05/23 03:08:49;;;;;;;2.05;0.60;;;;;;;;;;5100338;28;20060;-63
2021/05/23 03:11:14;;;;;;;4.53;0.73;;;;;;;;;;5070221;28;20095;-62
2021/05/23 03:13:39;;;;;;;1.67;0.50;;;;;;;;;;5069519;28;20020;-63
2021/05/23 03:16:04;;;;;;;5.15;0.40;;;;;;;;;;5070885;28;20155;-63
2021/05/23 03:18:30;;;;;;;1.15;0.40;;;;;;;;;;5067501;28;20516;-63
2021/05/23 03:20:55;;;;;;;4.10;0.50;;;;;;;;;;5070672;28;20077;-62
2021/05/23 03:23:20;;;;;;;2.97;0.40;;;;;;;;;;5069253;28;20383;-62
2021/05/23 03:25:45;;;;;;;2.88;0.40;;;;;;;;;;5070953;28;20025;-63
2021/05/23 03:28:11;;;;;;;2.08;0.50;;;;;;;;;;5069207;28;20016;-62
2021/05/23 03:30:37;;;;;;;1.90;0.40;;;;;;;;;;5067728;28;20017;-63
2021/05/23 03:33:03;;;;;;;1.63;0.30;;;;;;;;;;5053529;28;20082;-63
2021/05/23 03:35:28;;;;;;;2.08;0.30;;;;;;;;;;5060545;28;20103;-62
2021/05/23 03:37:54;;;;;;;3.13;0.30;;;;;;;;;;5083765;28;20044;-62
2021/05/23 03:40:19;;;;;;;2.08;0.45;;;;;;;;;;5068803;28;20107;-62
2021/05/23 03:42:45;;;;;;;3.50;0.30;;;;;;;;;;5070015;28;20024;-62
2021/05/23 03:45:11;;;;;;;1.85;0.40;;;;;;;;;;5070499;28;20505;-62
2021/05/23 03:47:36;;;;;;;4.78;0.50;;;;;;;;;;5070416;28;20024;-62
2021/05/23 03:50:03;;;;;;;2.47;0.57;;;;;;;;;;5067840;28;20021;-62
2021/05/23 03:52:28;;;;;;;3.63;0.22;;;;;;;;;;5070461;28;20016;-62
2021/05/23 03:54:53;;;;;;;2.47;0.30;;;;;;;;;;5070864;28;20023;-62
2021/05/23 03:57:18;;;;;;;2.75;1.00;;;;;;;;;;5069741;28;20020;-63
2021/05/23 03:59:44;;;;;;;1.70;0.30;;;;;;;;;;5067314;28;20108;-63
2021/05/23 04:02:09;;;;;;;1.60;0.45;;;;;;;;;;5070326;28;20055;-62
2021/05/23 04:04:48;;;;;;;2.85;0.73;;;;;;;;;;5074046;28;20028;-62
2021/05/23 04:07:14;;;;;;;3.17;0.30;;;;;;;;;;5079624;28;20025;-63
2021/05/23 04:09:40;;;;;;;1.73;0.30;;;;;;;;;;5070735;28;20031;-64
2021/05/23 04:12:06;;;;;;;0.95;0.25;;;;;;;;;;5073472;28;20115;-62
2021/05/23 04:14:31;;;;;;;2.05;0.45;;;;;;;;;;5074055;28;20025;-63
2021/05/23 04:16:56;;;;;;;2.08;0.40;;;;;;;;;;5073753;28;20024;-62
2021/05/23 04:19:21;;;;;;;1.73;0.10;;;;;;;;;;5070610;28;20357;-62
2021/05/23 04:21:47;;;;;;;1.88;0.17;;;;;;;;;;5073695;28;20425;-63
2021/05/23 04:24:12;;;;;;;1.92;0.20;;;;;;;;;;5073929;28;20070;-62
2021/05/23 04:26:37;;;;;;;1.30;0.15;;;;;;;;;;5070990;28;20111;-62
2021/05/23 04:29:02;;;;;;;1.70;0.10;;;;;;;;;;5070395;28;20159;-62
2021/05/23 04:31:27;;;;;;;1.40;0.57;;;;;;;;;;5073759;28;20016;-63
2021/05/23 04:33:53;;;;;;;2.20;0.15;;;;;;;;;;5072851;28;20476;-62
2021/05/23 04:36:18;;;;;;;3.35;0.30;;;;;;;;;;5072925;28;20024;-63
2021/05/23 04:38:43;;;;;;;2.67;0.20;;;;;;;;;;5068572;28;20317;-63
2021/05/23 04:41:11;;;;;;;3.03;0.15;;;;;;;;;;5073313;28;20492;-62
2021/05/23 04:43:36;;;;;;;0.90;0.40;;;;;;;;;;5073155;28;20035;-62
2021/05/23 04:46:01;;;;;;;2.33;0.30;;;;;;;;;;5072590;28;20020;-63
2021/05/23 04:48:26;;;;;;;0.55;0.30;;;;;;;;;;5070138;28;20020;-63
2021/05/23 04:50:52;;;;;;;0.75;0.10;;;;;;;;;;5073338;28;20013;-63
2021/05/23 04:53:17;;;;;;;1.65;0.10;;;;;;;;;;5073002;28;20468;-64
2021/05/23 04:55:42;;;;;;;0.85;0.20;;;;;;;;;;5072998;28;20537;-63
2021/05/23 04:58:07;;;;;;;1.75;0.47;;;;;;;;;;5071096;28;20008;-63
2021/05/23 05:00:33;;;;;;;0.88;0.30;;;;;;;;;;5070704;28;20029;-63
2021/05/23 05:02:58;;;;;;;2.42;0.20;;;;;;;;;;5073379;28;20070;-63
2021/05/23 05:05:23;;;;;;;1.30;0.10;;;;;;;;;;5073026;28;20349;-63
2021/05/23 05:07:48;;;;;;;0.85;0.17;;;;;;;;;;5091302;28;20454;-63
2021/05/23 05:10:14;;;;;;;1.05;0.30;;;;;;;;;;5069689;28;20027;-63
2021/05/23 05:12:39;;;;;;;1.88;0.10;;;;;;;;;;5072862;28;20069;-63
2021/05/23 05:15:06;;;;;;;2.15;0.10;;;;;;;;;;5073096;28;20016;-64
2021/05/23 05:17:31;;;;;;;3.00;0.30;;;;;;;;;;5072316;28;20013;-64
2021/05/23 05:19:56;;;;;;;1.30;0.40;;;;;;;;;;5069296;28;20494;-63
2021/05/23 05:22:21;;;;;;;1.55;0.20;;;;;;;;;;5072871;28;20175;-63
2021/05/23 05:24:47;;;;;;;1.33;0.10;;;;;;;;;;5067728;28;20031;-63
2021/05/23 05:27:13;;;;;;;1.52;0.10;;;;;;;;;;5070776;28;20028;-63
2021/05/23 05:29:38;;;;;;;0.98;0.10;;;;;;;;;;5068131;28;20387;-63
2021/05/23 05:32:03;;;;;;;1.17;0.10;;;;;;;;;;5070730;28;20418;-63
2021/05/23 05:34:28;;;;;;;2.80;0.15;;;;;;;;;;5066358;28;20375;-63
2021/05/23 05:36:54;;;;;;;1.00;0.10;;;;;;;;;;5072245;28;20093;-63
2021/05/23 05:39:19;;;;;;;3.25;0.22;;;;;;;;;;5067986;28;20082;-63
2021/05/23 05:41:44;;;;;;;0.93;0.15;;;;;;;;;;5072452;28;20024;-63
2021/05/23 05:44:09;;;;;;;3.10;0.22;;;;;;;;;;5071183;28;20036;-63
2021/05/23 05:46:34;;;;;;;1.23;0.20;;;;;;;;;;5071945;28;20475;-63
2021/05/23 05:49:00;;;;;;;2.58;0.20;;;;;;;;;;5069075;28;20016;-63
2021/05/23 05:51:25;;;;;;;2.45;0.20;;;;;;;;;;5060896;28;20067;-63
2021/05/23 05:53:50;;;;;;;1.73;0.20;;;;;;;;;;5067445;28;20444;-64
2021/05/23 05:56:15;;;;;;;5.20;0.30;;;;;;;;;;5071730;28;20020;-63
2021/05/23 05:58:41;;;;;;;0.57;0.10;;;;;;;;;;5069220;28;20016;-63
2021/05/23 06:01:06;;;;;;;1.65;0.10;;;;;;;;;;5071880;28;20039;-63
2021/05/23 06:03:32;;;;;;;0.73;0.10;;;;;;;;;;5070781;28;20498;-63
2021/05/23 06:05:57;;;;;;;1.95;0.00;;;;;;;;;;5071299;28;20028;-63
2021/05/23 06:08:22;;;;;;;0.40;0.10;;;;;;;;;;5058306;28;20375;-63
2021/05/23 06:10:48;;;;;;;2.85;0.25;;;;;;;;;;5060644;28;20108;-63
2021/05/23 06:13:13;;;;;;;1.63;0.10;;;;;;;;;;5071267;28;20021;-63
2021/05/23 06:15:38;;;;;;;1.40;0.20;;;;;;;;;;5071538;28;20028;-63
2021/05/23 06:18:04;;;;;;;0.47;0.10;;;;;;;;;;5070209;28;20020;-63
2021/05/23 06:20:29;;;;;;;2.03;0.30;;;;;;;;;;5068828;28;20031;-63
2021/05/23 06:22:54;;;;;;;0.55;0.20;;;;;;;;;;5070963;28;20107;-63
2021/05/23 06:25:20;;;;;;;3.03;0.20;;;;;;;;;;5069916;28;20107;-64
2021/05/23 06:27:45;;;;;;;0.52;0.10;;;;;;;;;;5070224;28;20056;-63
2021/05/23 06:30:10;;;;;;;0.95;0.10;;;;;;;;;;5072294;28;20019;-63
2021/05/23 06:32:36;;;;;;;0.95;0.17;;;;;;;;;;5078348;28;20046;-63
2021/05/23 06:35:01;;;;;;;0.65;0.35;;;;;;;;;;5069466;28;20023;-63
2021/05/23 06:37:26;;;;;;;0.95;0.15;;;;;;;;;;5076100;28;20059;-63
2021/05/23 06:39:51;;;;;;;0.75;0.10;;;;;;;;;;5068098;28;20028;-64
2021/05/23 06:42:18;;;;;;;1.58;0.20;;;;;;;;;;5071190;28;20020;-63
2021/05/23 06:44:43;;;;;;;0.95;0.10;;;;;;;;;;5069448;28;20025;-63
2021/05/23 06:47:08;;;;;;;1.58;0.43;;;;;;;;;;5070646;28;20020;-63
2021/05/23 06:49:34;;;;;;;0.40;0.10;;;;;;;;;;5067318;28;20430;-63
2021/05/23 06:51:59;;;;;;;0.47;0.10;;;;;;;;;;5069729;28;20116;-63
2021/05/23 06:54:25;;;;;;;1.55;0.20;;;;;;;;;;5069093;28;20129;-64
2021/05/23 06:56:50;;;;;;;1.65;0.20;;;;;;;;;;5071198;28;20017;-63
2021/05/23 06:59:15;;;;;;;1.13;0.10;;;;;;;;;;5067849;28;20511;-63
2021/05/23 07:01:40;;;;;;;3.03;0.10;;;;;;;;;;5071071;28;20029;-63
2021/05/23 07:04:06;;;;;;;1.05;0.10;;;;;;;;;;5068673;28;20080;-64
2021/05/23 07:06:31;;;;;;;0.80;0.10;;;;;;;;;;5067032;28;20028;-63
2021/05/23 07:08:56;;;;;;;0.85;0.10;;;;;;;;;;5067513;28;20031;-64
2021/05/23 07:11:22;;;;;;;0.57;0.10;;;;;;;;;;5071026;28;20087;-64
2021/05/23 07:13:47;;;;;;;1.38;0.10;;;;;;;;;;5070562;28;20016;-64
2021/05/23 07:16:12;;;;;;;1.30;0.15;;;;;;;;;;5070521;28;20095;-63
2021/05/23 07:18:38;;;;;;;0.17;0.00;;;;;;;;;;5065139;28;20055;-64
2021/05/23 07:21:03;;;;;;;3.15;0.10;;;;;;;;;;5071152;28;20028;-64
2021/05/23 07:23:30;;;;;;;1.33;0.10;;;;;;;;;;5070387;28;20016;-64
2021/05/23 07:25:55;;;;;;;1.27;0.10;;;;;;;;;;5067084;28;20573;-64
2021/05/23 07:28:21;;;;;;;0.65;0.10;;;;;;;;;;5068519;28;20143;-64
2021/05/23 07:30:46;;;;;;;1.38;0.10;;;;;;;;;;5069910;28;20025;-64
2021/05/23 07:33:14;;;;;;;1.35;0.10;;;;;;;;;;5070449;28;20024;-64
2021/05/23 07:35:40;;;;;;;0.88;0.20;;;;;;;;;;5069387;28;20086;-64
2021/05/23 07:38:05;;;;;;;1.50;0.15;;;;;;;;;;5078401;28;20491;-64
2021/05/23 07:40:30;;;;;;;1.13;0.10;;;;;;;;;;5071972;28;20356;-62
2021/05/23 07:42:56;;;;;;;1.67;0.10;;;;;;;;;;5074105;28;20453;-64
2021/05/23 07:45:21;;;;;;;0.88;0.10;;;;;;;;;;5073789;28;20051;-63
2021/05/23 07:47:46;;;;;;;0.63;0.20;;;;;;;;;;5072442;28;20032;-65
2021/05/23 07:50:15;;;;;;;1.70;0.20;;;;;;;;;;5073296;28;20462;-64
2021/05/23 07:52:40;;;;;;;1.25;0.10;;;;;;;;;;5092710;28;20019;-63
2021/05/23 07:55:06;;;;;;;0.88;0.17;;;;;;;;;;5068863;28;20732;-64
2021/05/23 07:57:31;;;;;;;1.50;0.20;;;;;;;;;;5072926;28;20398;-64
2021/05/23 07:59:56;;;;;;;1.67;0.57;;;;;;;;;;5068722;28;20025;-64
2021/05/23 08:02:21;;;;;;;1.48;0.10;;;;;;;;;;5071882;28;20017;-64
2021/05/23 08:04:47;;;;;;;0.57;0.15;;;;;;;;;;5074196;28;20039;-64
2021/05/23 08:07:12;;;;;;;2.22;0.30;;;;;;;;;;5080097;28;20028;-64
2021/05/23 08:09:37;;;;;;;1.30;0.20;;;;;;;;;;5070918;28;20028;-64
2021/05/23 08:12:03;;;;;;;0.63;0.10;;;;;;;;;;5076296;28;20499;-64
2021/05/23 08:14:28;;;;;;;2.55;0.20;;;;;;;;;;5073753;28;20360;-64
2021/05/23 08:16:53;;;;;;;0.73;0.20;;;;;;;;;;5073352;28;20016;-64
2021/05/23 08:19:19;;;;;;;0.65;0.10;;;;;;;;;;5073394;28;20055;-65
2021/05/23 08:21:45;;;;;;;1.35;0.10;;;;;;;;;;5072766;28;20107;-64
2021/05/23 08:24:10;;;;;;;0.45;0.08;;;;;;;;;;5071612;28;20017;-64
2021/05/23 08:26:35;;;;;;;1.65;0.20;;;;;;;;;;5071170;28;20517;-64
2021/05/23 08:29:02;;;;;;;0.38;0.10;;;;;;;;;;5070535;28;20016;-64
2021/05/23 08:31:27;;;;;;;0.40;0.10;;;;;;;;;;5073733;28;20017;-64
2021/05/23 08:33:53;;;;;;;0.17;0.00;;;;;;;;;;5070435;28;20012;-64
2021/05/23 08:36:18;;;;;;;0.50;0.05;;;;;;;;;;5070427;28;20111;-64
2021/05/23 08:38:44;;;;;;;2.05;0.30;;;;;;;;;;5064290;28;20392;-64
2021/05/23 08:41:09;;;;;;;1.80;0.30;;;;;;;;;;5068807;28;20024;-64
2021/05/23 08:43:35;;;;;;;1.15;0.10;;;;;;;;;;5073630;28;20039;-64
2021/05/23 08:46:01;;;;;;;0.43;0.08;;;;;;;;;;5073347;28;20020;-64
2021/05/23 08:48:26;;;;;;;1.23;0.10;;;;;;;;;;5098274;27;20799;-64
2021/05/23 08:50:51;;;;;;;0.47;0.10;;;;;;;;;;5068753;28;20023;-64
2021/05/23 08:53:17;;;;;;;1.00;0.10;;;;;;;;;;5071559;28;20121;-63
2021/05/23 08:55:43;;;;;;;1.33;0.10;;;;;;;;;;5074743;28;20401;-64
2021/05/23 08:58:09;;;;;;;0.25;0.10;;;;;;;;;;5070821;28;20383;-65
2021/05/23 09:00:35;;;;;;;1.88;0.20;;;;;;;;;;5070245;28;20107;-64
2021/05/23 09:03:01;;;;;;;0.60;0.20;;;;;;;;;;5080688;28;20074;-64
2021/05/23 09:05:33;;;;;;;0.55;0.20;;;;;;;;;;5088804;28;20391;-64
2021/05/23 09:07:59;;;;;;;1.25;0.20;;;;;;;;;;5073316;28;20027;-64
2021/05/23 09:10:26;;;;;;;0.47;0.10;;;;;;;;;;5056284;28;20559;-63
2021/05/23 09:12:51;;;;;;;0.30;0.10;;;;;;;;;;5071449;28;20025;-64
2021/05/23 09:15:17;;;;;;;0.80;0.15;;;;;;;;;;5069529;28;20017;-64
2021/05/23 09:17:42;;;;;;;0.65;0.10;;;;;;;;;;5068499;28;20286;-66
2021/05/23 09:20:07;;;;;;;0.95;0.10;;;;;;;;;;5070568;28;20019;-66
2021/05/23 09:22:33;;;;;;;1.55;0.10;;;;;;;;;;5079326;28;20424;-65
2021/05/23 09:24:58;;;;;;;0.55;0.10;;;;;;;;;;5070135;28;20372;-62
2021/05/23 09:27:27;;;;;;;1.58;0.15;;;;;;;;;;5069332;28;20031;-63
2021/05/23 09:30:01;;;;;;;0.05;0.00;;;;;;;;;;5068176;28;20019;-62
2021/05/23 09:32:26;;;;;;;0.57;0.20;;;;;;;;;;5069228;28;20029;-64
2021/05/23 09:35:00;;;;;;;1.30;0.10;;;;;;;;;;5068087;28;20297;-64
2021/05/23 09:37:26;;;;;;;2.58;0.10;;;;;;;;;;5070517;28;20056;-63
2021/05/23 09:39:51;;;;;;;1.00;0.10;;;;;;;;;;5064378;28;20020;-63
2021/05/23 09:42:17;;;;;;;0.90;0.10;;;;;;;;;;5065454;28;20036;-63
2021/05/23 09:44:42;;;;;;;0.77;0.30;;;;;;;;;;5069770;28;20024;-62
2021/05/23 09:47:12;;;;;;;0.63;0.10;;;;;;;;;;5075012;28;20102;-62
2021/05/23 09:49:44;;;;;;;0.15;0.10;;;;;;;;;;5065200;28;20486;-62
2021/05/23 09:52:13;;;;;;;0.35;0.10;;;;;;;;;;5066480;28;20025;-62
2021/05/23 09:54:48;;;;;;;0.30;0.10;;;;;;;;;;5068444;28;20103;-62
2021/05/23 09:57:17;;;;;;;0.40;0.10;;;;;;;;;;5057376;28;20013;-65
2021/05/23 09:59:42;;;;;;;0.50;0.20;;;;;;;;;;5060623;28;20037;-63
2021/05/23 10:02:08;;;;;;;0.93;0.10;;;;;;;;;;5067017;28;20048;-63
2021/05/23 10:04:34;;;;;;;0.43;0.13;;;;;;;;;;5066725;28;20020;-64
2021/05/23 10:07:01;;;;;;;0.77;0.10;;;;;;;;;;5060822;28;20013;-64
2021/05/23 10:09:27;;;;;;;0.30;0.00;;;;;;;;;;5072329;28;20028;-65
2021/05/23 10:11:52;;;;;;;1.75;0.17;;;;;;;;;;5068866;28;20074;-64
2021/05/23 10:14:18;;;;;;;0.47;0.00;;;;;;;;;;5069147;28;20012;-65
2021/05/23 10:16:44;;;;;;;0.75;0.10;;;;;;;;;;5071627;28;20062;-64
2021/05/23 10:19:09;;;;;;;1.42;0.20;;;;;;;;;;5066871;28;20035;-65
2021/05/23 10:21:35;;;;;;;0.60;0.10;;;;;;;;;;5070741;28;20016;-64
2021/05/23 10:24:02;;;;;;;0.52;0.10;;;;;;;;;;5064071;28;20361;-64
2021/05/23 10:26:28;;;;;;;1.02;0.10;;;;;;;;;;5067905;28;20059;-65
2021/05/23 10:28:54;;;;;;;1.45;0.30;;;;;;;;;;5068212;28;20075;-63
2021/05/23 10:31:29;;;;;;;1.02;0.00;;;;;;;;;;5060119;28;20028;-64
2021/05/23 10:33:55;;;;;;;0.47;0.10;;;;;;;;;;5062748;28;20365;-65
2021/05/23 10:36:34;;;;;;;0.70;0.10;;;;;;;;;;5064926;28;20027;-63
2021/05/23 10:39:00;;;;;;;0.57;0.00;;;;;;;;;;5064762;28;20531;-63
2021/05/23 10:41:27;;;;;;;1.60;0.10;;;;;;;;;;5066535;28;20139;-63
2021/05/23 10:43:56;;;;;;;0.25;0.00;;;;;;;;;;5075025;28;20095;-63
2021/05/23 10:46:21;;;;;;;1.48;0.52;;;;;;;;;;5072009;28;20051;-63
2021/05/23 10:49:00;;;;;;;0.85;0.10;;;;;;;;;;5067825;28;20361;-63
2021/05/23 10:51:26;;;;;;;0.15;0.10;;;;;;;;;;5070834;28;20017;-63
2021/05/23 10:53:52;;;;;;;0.60;0.15;;;;;;;;;;5068104;28;20189;-62
2021/05/23 10:56:18;;;;;;;0.15;0.10;;;;;;;;;;5071711;28;20012;-62
2021/05/23 10:58:50;;;;;;;0.22;0.10;;;;;;;;;;5074222;28;20035;-62
2021/05/23 11:01:17;;;;;;;0.73;0.03;;;;;;;;;;5073699;28;20078;-62
2021/05/23 11:03:42;;;;;;;1.35;0.10;;;;;;;;;;5073096;28;20023;-62
2021/05/23 11:06:08;;;;;;;0.38;0.00;;;;;;;;;;5067595;28;20108;-63
2021/05/23 11:08:34;;;;;;;0.00;0.00;;;;;;;;;;5081502;28;20429;-63
2021/05/23 11:10:59;;;;;;;0.30;0.03;;;;;;;;;;5077947;28;20026;-63
2021/05/23 11:13:31;;;;;;;1.50;0.10;;;;;;;;;;5070116;28;20020;-62
2021/05/23 11:16:08;;;;;;;1.90;0.00;;;;;;;;;;5074897;28;20020;-62
2021/05/23 11:18:33;;;;;;;0.00;0.00;;;;;;;;;;5072137;28;20048;-62
2021/05/23 11:21:00;;;;;;;0.20;0.00;;;;;;;;;;5082174;28;20047;-63
2021/05/23 11:23:26;;;;;;;0.10;0.00;;;;;;;;;;5072675;28;20012;-62
2021/05/23 11:26:11;;;;;;;1.02;0.10;;;;;;;;;;5073772;28;20016;-62
2021/05/23 11:28:37;;;;;;;0.65;0.10;;;;;;;;;;5070168;28;20331;-62
2021/05/23 11:31:03;;;;;;;0.68;0.00;;;;;;;;;;5074787;28;20539;-62
2021/05/23 11:33:28;;;;;;;0.32;0.00;;;;;;;;;;5071279;28;20096;-62
2021/05/23 11:35:53;;;;;;;0.10;0.03;;;;;;;;;;5075169;28;20055;-62
2021/05/23 11:38:20;;;;;;;1.00;0.00;;;;;;;;;;5070956;28;20140;-62
2021/05/23 11:40:46;;;;;;;0.20;0.00;;;;;;;;;;5077183;28;20055;-62
2021/05/23 11:43:14;;;;;;;0.47;0.10;;;;;;;;;;5104971;27;20059;-62
2021/05/23 11:45:58;;;;;;;0.82;0.10;;;;;;;;;;5078902;28;20025;-62
2021/05/23 11:48:50;;;;;;;0.20;0.10;;;;;;;;;;5068941;28;20052;-63
2021/05/23 11:51:21;;;;;;;0.95;0.10;;;;;;;;;;5072293;28;20074;-62
2021/05/23 11:53:48;;;;;;;0.35;0.10;;;;;;;;;;5072485;28;20079;-63
2021/05/23 11:56:14;;;;;;;0.82;0.05;;;;;;;;;;5072574;28;20024;-63
2021/05/23 11:58:43;;;;;;;0.88;0.00;;;;;;;;;;5068737;28;20020;-63
2021/05/23 12:01:13;;;;;;;0.73;0.10;;;;;;;;;;5068865;28;20020;-62
2021/05/23 12:03:38;;;;;;;0.22;0.10;;;;;;;;;;5062018;28;20029;-61
2021/05/23 12:06:03;;;;;;;0.38;0.10;;;;;;;;;;5076069;28;20103;-62
2021/05/23 12:08:28;;;;;;;0.25;0.08;;;;;;;;;;5070400;28;20051;-63
2021/05/23 12:11:04;;;;;;;0.22;0.00;;;;;;;;;;5077702;28;20020;-62
2021/05/23 12:13:36;;;;;;;0.35;0.00;;;;;;;;;;5073978;28;20013;-63
2021/05/23 12:16:01;;;;;;;0.20;0.10;;;;;;;;;;5079817;28;20524;-61
2021/05/23 12:18:38;;;;;;;0.60;0.10;;;;;;;;;;5091050;28;20032;-62
2021/05/23 12:21:04;;;;;;;0.90;0.00;;;;;;;;;;5080559;28;20020;-66
2021/05/23 12:23:31;;;;;;;0.15;0.00;;;;;;;;;;5071594;28;20028;-64
2021/05/23 12:25:56;;;;;;;2.03;0.10;;;;;;;;;;5071386;28;20016;-63
2021/05/23 12:28:21;;;;;;;0.32;0.00;;;;;;;;;;5058423;28;20074;-63
2021/05/23 12:30:47;;;;;;;0.20;0.00;;;;;;;;;;5072059;28;20383;-63
2021/05/23 12:33:12;;;;;;;0.10;0.00;;;;;;;;;;5071006;28;20467;-64
2021/05/23 12:35:39;;;;;;;0.30;0.00;;;;;;;;;;5071327;28;20024;-61
2021/05/23 12:38:16;;;;;;;0.70;0.10;;;;;;;;;;5073717;28;20621;-62
2021/05/23 12:40:43;;;;;;;0.30;0.10;;;;;;;;;;5070167;28;20467;-61
2021/05/23 12:43:08;;;;;;;0.45;0.10;;;;;;;;;;5072706;28;20024;-60
2021/05/23 12:45:33;;;;;;;0.98;0.17;;;;;;;;;;5072105;28;20538;-64
2021/05/23 12:47:58;;;;;;;0.45;0.10;;;;;;;;;;5074068;28;20052;-60
2021/05/23 12:50:50;;;;;;;0.57;0.10;;;;;;;;;;5071810;28;20153;-62
2021/05/23 12:53:31;;;;;;;0.75;0.08;;;;;;;;;;5066819;28;20038;-63
2021/05/23 12:56:06;;;;;;;0.77;0.10;;;;;;;;;;5073262;28;20082;-63
2021/05/23 12:58:31;;;;;;;;;;;;;;;;;;5069392;28;20702;-64
2021/05/23 13:00:57;;;;;;;0.28;0.00;;;;;;;;;;5073229;28;20283;-64
2021/05/23 13:03:22;;;;;;;0.90;0.00;;;;;;;;;;5071954;28;20032;-62
2021/05/23 13:05:55;;;;;;;0.10;0.10;;;;;;;;;;5075815;28;20036;-64
2021/05/23 13:08:20;;;;;;;0.40;0.10;;;;;;;;;;5069168;28;20079;-61
2021/05/23 13:10:45;;;;;;;0.15;0.15;;;;;;;;;;5070888;28;20487;-63
2021/05/23 13:13:11;;;;;;;0.43;0.10;;;;;;;;;;5072133;28;20070;-63
2021/05/23 13:15:36;;;;;;;0.00;0.00;;;;;;;;;;5076023;28;20038;-63
2021/05/23 13:18:02;;;;;;;0.08;0.00;;;;;;;;;;5078043;28;20103;-63
2021/05/23 13:20:28;;;;;;;0.38;0.10;;;;;;;;;;5068848;28;20035;-63
2021/05/23 13:22:53;;;;;;;0.03;0.00;;;;;;;;;;5073365;28;20022;-63
2021/05/23 13:25:20;;;;;;;0.10;0.00;;;;;;;;;;5071445;28;20382;-63
2021/05/23 13:27:55;;;;;;;0.40;0.10;;;;;;;;;;5068018;28;20543;-64
2021/05/23 13:30:22;;;;;;;0.47;0.00;;;;;;;;;;5068245;28;20017;-63
2021/05/23 13:32:50;;;;;;;0.57;0.10;;;;;;;;;;5071202;28;20431;-63
2021/05/23 13:35:15;;;;;;;0.57;0.10;;;;;;;;;;5083238;28;20046;-63
2021/05/23 13:37:41;;;;;;;0.90;0.17;;;;;;;;;;5084137;28;20068;-63
2021/05/23 13:40:07;;;;;;;0.22;0.08;;;;;;;;;;5073358;28;20029;-63
2021/05/23 13:42:32;;;;;;;0.30;0.10;;;;;;;;;;5071286;28;20402;-63
2021/05/23 13:44:57;;;;;;;0.00;0.00;;;;;;;;;;5071625;28;20030;-63
2021/05/23 13:47:23;;;;;;;0.52;0.00;;;;;;;;;;5075618;28;20384;-64
2021/05/23 13:49:48;;;;;;;0.25;0.10;;;;;;;;;;5069090;28;20406;-63
2021/05/23 13:52:13;;;;;;;0.60;0.00;;;;;;;;;;5074872;28;20034;-63
2021/05/23 13:54:39;;;;;;;0.75;0.10;;;;;;;;;;5072077;28;20100;-61
2021/05/23 13:57:04;;;;;;;1.02;0.13;;;;;;;;;;5074307;28;20029;-61
2021/05/23 13:59:30;;;;;;;0.40;0.00;;;;;;;;;;5068251;28;20024;-63
2021/05/23 14:01:55;;;;;;;0.20;0.00;;;;;;;;;;5071802;28;20067;-63
2021/05/23 14:04:21;;;;;;;0.00;0.00;;;;;;;;;;5071636;28;20017;-63
2021/05/23 14:06:47;;;;;;;1.25;0.00;;;;;;;;;;5071480;28;20042;-63
2021/05/23 14:09:13;;;;;;;0.32;0.00;;;;;;;;;;5067611;28;20021;-63
2021/05/23 14:11:38;;;;;;;0.38;0.03;;;;;;;;;;5070665;28;20495;-63
2021/05/23 14:14:04;;;;;;;0.20;0.10;;;;;;;;;;5070382;28;20016;-63
2021/05/23 14:16:29;;;;;;;0.20;0.10;;;;;;;;;;5069566;28;20099;-63
2021/05/23 14:18:54;;;;;;;0.22;0.10;;;;;;;;;;5067351;28;20127;-63
2021/05/23 14:21:19;;;;;;;0.90;0.10;;;;;;;;;;5071387;28;20092;-62
2021/05/23 14:23:45;;;;;;;0.30;0.10;;;;;;;;;;5073238;28;20020;-63
2021/05/23 14:26:10;;;;;;;1.20;0.10;;;;;;;;;;5068248;28;20017;-62
2021/05/23 14:28:36;;;;;;;0.22;0.10;;;;;;;;;;5068522;28;20025;-63
2021/05/23 14:31:01;;;;;;;0.30;0.10;;;;;;;;;;5069896;28;20017;-63
2021/05/23 14:33:26;;;;;;;0.10;0.10;;;;;;;;;;5103720;28;20027;-63
2021/05/23 14:35:52;;;;;;;0.68;0.00;;;;;;;;;;5070511;28;20380;-63
2021/05/23 14:38:18;;;;;;;0.10;0.00;;;;;;;;;;5069593;28;20048;-62